Time;durP1;ratioP1;P1;durP2;ratioP2;P2;SDS_P1;SDS_P2;PMS_P1;PMS_P2;Temp;Humidity;BMP_temperature;BMP_pressure;BME280_temperature;BME280_humidity;BME280_pressure;Samples;Min_cycle;Max_cycle;Signal;HPM_P1;HPM_P2
2024/01/28 00:02:44;;;;;;;12.03;5.93;;;;;;;;;;4957003;29;20540;-84
2024/01/28 00:05:51;;;;;;;11.23;5.50;;;;;;;;;;4945455;29;20618;-85
2024/01/28 00:08:55;;;;;;;13.43;6.30;;;;;;;;;;4957524;29;20548;-85
2024/01/28 00:11:59;;;;;;;13.10;6.60;;;;;;;;;;4957469;29;20591;-85
2024/01/28 00:15:06;;;;;;;11.20;5.40;;;;;;;;;;4959929;28;20638;-84
2024/01/28 00:18:10;;;;;;;12.80;5.50;;;;;;;;;;4948986;29;20548;-84
2024/01/28 00:21:15;;;;;;;9.33;5.20;;;;;;;;;;4961818;29;20543;-84
2024/01/28 00:24:20;;;;;;;14.63;6.03;;;;;;;;;;4943907;29;20555;-84
2024/01/28 00:27:24;;;;;;;10.80;6.37;;;;;;;;;;4959813;29;20544;-84
2024/01/28 00:30:32;;;;;;;11.03;5.20;;;;;;;;;;4956206;29;20543;-84
2024/01/28 00:33:36;;;;;;;15.97;6.50;;;;;;;;;;4960509;29;20615;-84
2024/01/28 00:36:40;;;;;;;12.67;5.93;;;;;;;;;;4960538;29;20622;-84
2024/01/28 00:39:44;;;;;;;12.00;6.37;;;;;;;;;;4948916;29;20555;-85
2024/01/28 00:42:48;;;;;;;12.90;5.47;;;;;;;;;;4927537;29;21120;-84
2024/01/28 00:45:54;;;;;;;11.23;5.90;;;;;;;;;;4948347;29;20614;-85
2024/01/28 00:48:59;;;;;;;10.00;5.60;;;;;;;;;;4959930;29;20882;-84
2024/01/28 00:52:03;;;;;;;11.90;6.10;;;;;;;;;;4936619;29;21147;-84
2024/01/28 00:55:08;;;;;;;14.53;6.40;;;;;;;;;;4948157;29;20663;-85
2024/01/28 00:58:14;;;;;;;13.80;6.90;;;;;;;;;;4942164;29;20929;-85
2024/01/28 01:01:19;;;;;;;16.00;5.80;;;;;;;;;;4948227;29;20543;-84
2024/01/28 01:04:23;;;;;;;13.90;6.47;;;;;;;;;;4960389;29;20536;-84
2024/01/28 01:07:27;;;;;;;14.80;6.73;;;;;;;;;;4936911;29;20581;-84
2024/01/28 01:10:31;;;;;;;14.80;7.17;;;;;;;;;;4959955;29;20539;-85
2024/01/28 01:13:35;;;;;;;14.50;6.47;;;;;;;;;;4959693;29;20620;-84
2024/01/28 01:16:40;;;;;;;10.13;5.60;;;;;;;;;;4959544;29;20622;-85
2024/01/28 01:19:44;;;;;;;17.80;6.83;;;;;;;;;;4959146;29;20551;-84
2024/01/28 01:22:48;;;;;;;10.27;5.37;;;;;;;;;;4961250;29;20540;-84
2024/01/28 01:25:55;;;;;;;12.93;6.60;;;;;;;;;;4961353;28;20690;-84
2024/01/28 01:28:59;;;;;;;10.00;6.33;;;;;;;;;;4948273;29;20544;-84
2024/01/28 01:32:03;;;;;;;13.37;6.50;;;;;;;;;;4960482;29;20611;-84
2024/01/28 01:35:08;;;;;;;11.77;6.53;;;;;;;;;;4946396;29;20615;-84
2024/01/28 01:38:12;;;;;;;12.90;6.60;;;;;;;;;;4946663;29;20540;-84
2024/01/28 01:41:16;;;;;;;13.17;6.83;;;;;;;;;;4959037;29;20560;-85
2024/01/28 01:44:20;;;;;;;16.60;7.43;;;;;;;;;;4958767;29;20559;-85
2024/01/28 01:47:26;;;;;;;12.70;6.50;;;;;;;;;;4959009;29;21108;-84
2024/01/28 01:50:30;;;;;;;13.77;6.77;;;;;;;;;;4958247;29;20905;-85
2024/01/28 01:53:35;;;;;;;14.47;6.30;;;;;;;;;;4946814;29;20595;-84
2024/01/28 01:56:39;;;;;;;16.63;6.73;;;;;;;;;;4946497;29;20646;-85
2024/01/28 01:59:45;;;;;;;14.50;6.10;;;;;;;;;;4959157;29;20539;-85
2024/01/28 02:02:49;;;;;;;13.27;6.30;;;;;;;;;;4946850;29;20536;-85
2024/01/28 02:05:53;;;;;;;12.60;6.50;;;;;;;;;;4958671;29;20630;-84
2024/01/28 02:08:57;;;;;;;11.97;7.00;;;;;;;;;;4957990;29;20551;-84
2024/01/28 02:12:02;;;;;;;13.77;6.00;;;;;;;;;;4959183;29;20540;-84
2024/01/28 02:15:11;;;;;;;14.10;7.30;;;;;;;;;;4936219;29;20622;-85
2024/01/28 02:18:16;;;;;;;12.10;6.70;;;;;;;;;;4958363;29;20540;-85
2024/01/28 02:21:20;;;;;;;17.83;7.53;;;;;;;;;;4958479;29;20561;-85
2024/01/28 02:24:24;;;;;;;20.87;7.83;;;;;;;;;;4959303;29;20555;-85
2024/01/28 02:27:29;;;;;;;16.17;6.87;;;;;;;;;;4946475;29;20543;-84
2024/01/28 02:30:35;;;;;;;13.93;7.20;;;;;;;;;;4953628;29;20539;-85
2024/01/28 02:33:39;;;;;;;13.13;6.53;;;;;;;;;;4958431;29;20587;-85
2024/01/28 02:36:43;;;;;;;13.60;7.03;;;;;;;;;;4946437;28;20627;-85
2024/01/28 02:39:48;;;;;;;11.40;6.50;;;;;;;;;;4957008;29;20551;-84
2024/01/28 02:42:52;;;;;;;13.60;7.30;;;;;;;;;;4946884;29;20548;-85
2024/01/28 02:45:56;;;;;;;14.80;6.63;;;;;;;;;;4958745;29;20634;-84
2024/01/28 02:49:00;;;;;;;17.03;7.23;;;;;;;;;;4957996;29;20548;-84
2024/01/28 02:52:04;;;;;;;12.40;6.57;;;;;;;;;;4958179;29;20540;-85
2024/01/28 02:55:09;;;;;;;12.57;6.10;;;;;;;;;;4957815;29;20644;-84
2024/01/28 02:58:13;;;;;;;11.00;6.43;;;;;;;;;;4958007;29;20564;-84
2024/01/28 03:01:17;;;;;;;10.53;6.23;;;;;;;;;;4957269;29;20547;-85
2024/01/28 03:04:23;;;;;;;14.77;7.30;;;;;;;;;;4957348;29;20540;-84
2024/01/28 03:07:27;;;;;;;10.73;6.27;;;;;;;;;;4946449;29;20551;-84
2024/01/28 03:10:31;;;;;;;10.23;6.23;;;;;;;;;;4946024;29;21081;-84
2024/01/28 03:13:36;;;;;;;11.27;6.13;;;;;;;;;;4957619;29;20595;-84
2024/01/28 03:16:41;;;;;;;13.83;6.60;;;;;;;;;;4957536;29;20627;-86
2024/01/28 03:19:46;;;;;;;11.13;6.40;;;;;;;;;;4945688;29;20547;-85
2024/01/28 03:22:50;;;;;;;14.40;6.90;;;;;;;;;;4946090;29;20536;-84
2024/01/28 03:25:54;;;;;;;15.80;6.97;;;;;;;;;;4957596;29;20623;-84
2024/01/28 03:28:58;;;;;;;12.47;6.37;;;;;;;;;;4956722;29;20906;-85
2024/01/28 03:32:03;;;;;;;13.60;6.73;;;;;;;;;;4956726;29;20900;-84
2024/01/28 03:35:09;;;;;;;10.40;6.40;;;;;;;;;;4955277;29;20961;-84
2024/01/28 03:38:13;;;;;;;12.07;6.10;;;;;;;;;;4956997;29;20547;-84
2024/01/28 03:41:18;;;;;;;14.63;6.53;;;;;;;;;;4939725;29;20547;-85
2024/01/28 03:44:23;;;;;;;11.43;6.20;;;;;;;;;;4957592;29;20540;-84
2024/01/28 03:47:28;;;;;;;14.47;7.60;;;;;;;;;;4957721;29;20552;-84
2024/01/28 03:50:33;;;;;;;11.83;6.77;;;;;;;;;;4944886;29;20543;-85
2024/01/28 03:53:37;;;;;;;10.50;6.63;;;;;;;;;;4957406;29;21199;-84
2024/01/28 03:56:41;;;;;;;18.20;7.30;;;;;;;;;;4956301;29;20669;-84
2024/01/28 03:59:45;;;;;;;13.20;6.93;;;;;;;;;;4957957;29;20551;-84
2024/01/28 04:02:49;;;;;;;13.27;7.13;;;;;;;;;;4934827;29;20560;-84
2024/01/28 04:05:54;;;;;;;15.07;7.33;;;;;;;;;;4956426;29;21210;-84
2024/01/28 04:08:59;;;;;;;13.80;6.93;;;;;;;;;;4956322;29;20548;-82
2024/01/28 04:12:04;;;;;;;13.40;7.07;;;;;;;;;;4937408;29;20561;-82
2024/01/28 04:15:10;;;;;;;11.33;6.73;;;;;;;;;;4956623;29;21203;-82
2024/01/28 04:18:14;;;;;;;11.70;7.10;;;;;;;;;;4944982;29;20539;-81
2024/01/28 04:21:18;;;;;;;15.87;7.73;;;;;;;;;;4957669;29;20544;-82
2024/01/28 04:24:22;;;;;;;15.77;7.37;;;;;;;;;;4944980;29;20547;-82
2024/01/28 04:27:27;;;;;;;15.00;8.40;;;;;;;;;;4956971;29;20535;-82
2024/01/28 04:30:31;;;;;;;15.87;8.07;;;;;;;;;;4945308;29;20539;-82
2024/01/28 04:33:36;;;;;;;14.07;7.47;;;;;;;;;;4956670;29;20595;-82
2024/01/28 04:36:41;;;;;;;14.77;8.20;;;;;;;;;;4955570;29;21295;-81
2024/01/28 04:39:47;;;;;;;18.83;7.87;;;;;;;;;;4956062;29;20544;-82
2024/01/28 04:42:51;;;;;;;14.30;8.00;;;;;;;;;;4944782;29;20551;-82
2024/01/28 04:45:56;;;;;;;17.47;7.90;;;;;;;;;;4933735;29;20614;-82
2024/01/28 04:49:03;;;;;;;12.17;8.23;;;;;;;;;;4956055;29;21096;-82
2024/01/28 04:52:07;;;;;;;14.53;8.47;;;;;;;;;;4957073;29;20544;-82
2024/01/28 04:55:11;;;;;;;13.97;8.63;;;;;;;;;;4955938;29;20626;-82
2024/01/28 04:58:15;;;;;;;15.03;8.27;;;;;;;;;;4956006;29;20532;-82
2024/01/28 05:01:19;;;;;;;14.37;8.37;;;;;;;;;;4934748;29;20543;-82
2024/01/28 05:04:23;;;;;;;15.13;9.47;;;;;;;;;;4947737;29;20548;-82
2024/01/28 05:07:29;;;;;;;15.13;8.93;;;;;;;;;;4959250;29;20552;-83
2024/01/28 05:10:33;;;;;;;15.67;8.70;;;;;;;;;;4959554;29;20540;-82
2024/01/28 05:13:37;;;;;;;13.63;8.27;;;;;;;;;;4947355;29;20591;-83
2024/01/28 05:16:47;;;;;;;15.00;8.53;;;;;;;;;;4959994;29;20622;-82
2024/01/28 05:19:51;;;;;;;19.17;9.33;;;;;;;;;;4947549;29;21092;-83
2024/01/28 05:22:59;;;;;;;14.93;9.00;;;;;;;;;;4947715;29;20886;-82
2024/01/28 05:26:03;;;;;;;15.83;8.00;;;;;;;;;;4959262;29;20619;-82
2024/01/28 05:29:07;;;;;;;16.20;8.33;;;;;;;;;;4958409;29;20539;-83
2024/01/28 05:32:12;;;;;;;13.37;8.40;;;;;;;;;;4958454;29;20544;-82
2024/01/28 05:35:17;;;;;;;14.63;8.67;;;;;;;;;;4959778;29;20632;-82
2024/01/28 05:38:20;;;;;;;14.07;8.70;;;;;;;;;;4960408;29;20539;-83
2024/01/28 05:41:24;;;;;;;15.60;8.70;;;;;;;;;;4947793;29;20543;-82
2024/01/28 05:44:28;;;;;;;15.07;9.27;;;;;;;;;;4958802;29;20552;-82
2024/01/28 05:47:33;;;;;;;14.47;9.20;;;;;;;;;;4959019;29;20905;-82
2024/01/28 05:50:37;;;;;;;17.30;8.63;;;;;;;;;;4935942;29;20907;-83
2024/01/28 05:53:41;;;;;;;15.80;9.53;;;;;;;;;;4957578;29;20595;-82
2024/01/28 05:56:45;;;;;;;15.90;9.33;;;;;;;;;;4946430;29;20985;-82
2024/01/28 05:59:49;;;;;;;16.50;9.13;;;;;;;;;;4958126;29;20547;-82
2024/01/28 06:02:53;;;;;;;16.97;9.37;;;;;;;;;;4957905;29;20539;-83
2024/01/28 06:05:57;;;;;;;15.97;9.30;;;;;;;;;;4958015;29;20980;-82
2024/01/28 06:09:01;;;;;;;16.03;9.53;;;;;;;;;;4958698;29;20539;-82
2024/01/28 06:12:06;;;;;;;18.20;9.23;;;;;;;;;;4950740;28;21088;-83
2024/01/28 06:15:10;;;;;;;18.90;9.53;;;;;;;;;;4957706;29;20662;-82
2024/01/28 06:18:14;;;;;;;14.10;8.93;;;;;;;;;;4958411;29;20539;-82
2024/01/28 06:21:18;;;;;;;13.87;9.63;;;;;;;;;;4957735;29;20547;-82
2024/01/28 06:24:22;;;;;;;15.37;9.93;;;;;;;;;;4946347;29;20559;-82
2024/01/28 06:27:26;;;;;;;15.13;9.57;;;;;;;;;;4946595;29;20898;-82
2024/01/28 06:30:32;;;;;;;14.17;9.57;;;;;;;;;;4954371;29;20555;-82
2024/01/28 06:33:37;;;;;;;19.83;9.33;;;;;;;;;;4946365;29;20591;-82
2024/01/28 06:36:41;;;;;;;16.23;9.47;;;;;;;;;;4957713;29;20627;-82
2024/01/28 06:39:50;;;;;;;19.27;10.83;;;;;;;;;;4946396;29;20548;-82
2024/01/28 06:42:54;;;;;;;19.60;10.50;;;;;;;;;;4946447;29;20547;-83
2024/01/28 06:45:59;;;;;;;13.30;8.83;;;;;;;;;;4946141;29;20625;-82
2024/01/28 06:49:03;;;;;;;18.90;10.20;;;;;;;;;;4957849;29;20870;-82
2024/01/28 06:52:07;;;;;;;14.27;9.30;;;;;;;;;;4946035;29;20898;-82
2024/01/28 06:55:11;;;;;;;14.00;9.07;;;;;;;;;;4945831;29;20662;-82
2024/01/28 06:58:15;;;;;;;17.57;9.57;;;;;;;;;;4945537;29;20531;-82
2024/01/28 07:01:20;;;;;;;13.57;9.70;;;;;;;;;;4945852;29;20539;-82
2024/01/28 07:04:25;;;;;;;19.13;10.87;;;;;;;;;;4957941;29;20556;-82
2024/01/28 07:07:29;;;;;;;20.77;11.70;;;;;;;;;;4946237;29;20570;-82
2024/01/28 07:10:33;;;;;;;17.67;11.10;;;;;;;;;;4957678;29;20904;-82
2024/01/28 07:13:38;;;;;;;17.57;10.90;;;;;;;;;;4957339;29;20591;-81
2024/01/28 07:16:42;;;;;;;16.43;9.70;;;;;;;;;;4946077;29;21210;-82
2024/01/28 07:19:46;;;;;;;15.93;9.90;;;;;;;;;;4965211;28;20586;-81
2024/01/28 07:22:50;;;;;;;21.53;12.97;;;;;;;;;;4962778;29;20548;-82
2024/01/28 07:25:55;;;;;;;24.53;14.30;;;;;;;;;;4949868;29;21210;-81
2024/01/28 07:28:59;;;;;;;19.67;12.27;;;;;;;;;;4961814;29;20567;-81
2024/01/28 07:32:03;;;;;;;20.33;10.63;;;;;;;;;;4948850;29;20570;-82
2024/01/28 07:35:08;;;;;;;19.43;12.00;;;;;;;;;;4949144;29;20661;-82
2024/01/28 07:38:13;;;;;;;19.43;10.83;;;;;;;;;;4961212;29;20555;-82
2024/01/28 07:41:17;;;;;;;17.90;9.40;;;;;;;;;;4962030;29;20570;-82
2024/01/28 07:44:21;;;;;;;20.63;10.10;;;;;;;;;;4977614;29;20544;-83
2024/01/28 07:47:26;;;;;;;14.33;9.70;;;;;;;;;;4949107;29;20555;-82
2024/01/28 07:50:30;;;;;;;15.10;10.20;;;;;;;;;;4960623;29;20560;-82
2024/01/28 07:53:34;;;;;;;14.93;8.87;;;;;;;;;;4945599;29;20567;-83
2024/01/28 07:56:38;;;;;;;18.60;10.20;;;;;;;;;;4961491;29;20642;-83
2024/01/28 07:59:43;;;;;;;12.93;8.53;;;;;;;;;;4938515;29;20558;-82
2024/01/28 08:02:47;;;;;;;18.63;11.03;;;;;;;;;;4950614;29;20544;-82
2024/01/28 08:05:51;;;;;;;15.30;8.70;;;;;;;;;;4952121;29;20618;-82
2024/01/28 08:08:55;;;;;;;14.53;8.67;;;;;;;;;;4964133;29;20536;-83
2024/01/28 08:11:59;;;;;;;15.37;9.27;;;;;;;;;;4964477;29;20543;-83
2024/01/28 08:15:04;;;;;;;16.00;8.37;;;;;;;;;;4952679;29;20654;-83
2024/01/28 08:18:08;;;;;;;20.10;9.37;;;;;;;;;;4966272;29;20540;-82
2024/01/28 08:21:13;;;;;;;15.87;8.13;;;;;;;;;;4953863;29;20855;-81
2024/01/28 08:24:17;;;;;;;13.93;8.97;;;;;;;;;;4965215;29;20539;-82
2024/01/28 08:27:22;;;;;;;18.87;9.53;;;;;;;;;;4965681;29;20544;-82
2024/01/28 08:30:26;;;;;;;17.00;9.97;;;;;;;;;;4966056;29;20564;-82
2024/01/28 08:33:30;;;;;;;17.13;6.60;;;;;;;;;;4953028;29;20552;-82
2024/01/28 08:36:34;;;;;;;10.80;7.17;;;;;;;;;;4943152;29;20607;-82
2024/01/28 08:39:39;;;;;;;14.83;8.90;;;;;;;;;;4967053;29;20568;-82
2024/01/28 08:42:43;;;;;;;10.73;6.27;;;;;;;;;;4967469;29;20543;-82
2024/01/28 08:45:47;;;;;;;8.50;5.37;;;;;;;;;;4969942;29;20626;-82
2024/01/28 08:48:52;;;;;;;7.43;5.00;;;;;;;;;;4967518;29;20564;-82
2024/01/28 08:51:57;;;;;;;9.33;4.27;;;;;;;;;;4955824;29;20543;-82
2024/01/28 08:55:01;;;;;;;7.77;5.20;;;;;;;;;;4965725;29;20650;-81
2024/01/28 08:58:05;;;;;;;6.17;4.33;;;;;;;;;;4966491;29;20535;-82
2024/01/28 09:01:11;;;;;;;7.33;3.67;;;;;;;;;;4944741;29;20543;-82
2024/01/28 09:04:16;;;;;;;5.20;3.70;;;;;;;;;;4966839;29;20544;-82
2024/01/28 09:07:20;;;;;;;5.50;3.60;;;;;;;;;;4967840;29;20543;-83
2024/01/28 09:10:24;;;;;;;5.00;3.37;;;;;;;;;;4965522;29;20555;-83
2024/01/28 09:13:28;;;;;;;5.70;3.40;;;;;;;;;;4953782;29;21081;-84
2024/01/28 09:16:33;;;;;;;4.93;3.17;;;;;;;;;;4965505;29;20623;-82
2024/01/28 09:19:37;;;;;;;5.93;3.43;;;;;;;;;;4965593;29;20581;-82
2024/01/28 09:22:41;;;;;;;5.93;3.40;;;;;;;;;;4965119;29;20556;-83
2024/01/28 09:25:45;;;;;;;4.27;2.93;;;;;;;;;;4964381;29;20223;-82
2024/01/28 09:28:49;;;;;;;4.47;2.67;;;;;;;;;;4951824;29;20191;-82
2024/01/28 09:31:56;;;;;;;6.03;3.20;;;;;;;;;;4964691;29;20183;-82
2024/01/28 09:35:01;;;;;;;4.07;3.00;;;;;;;;;;4963431;29;20235;-82
2024/01/28 09:38:09;;;;;;;4.50;3.20;;;;;;;;;;4952574;29;21108;-82
2024/01/28 09:41:28;;;;;;;4.97;3.10;;;;;;;;;;4964447;29;20188;-82
2024/01/28 09:44:32;;;;;;;7.83;3.97;;;;;;;;;;4963282;29;20187;-83
2024/01/28 09:47:39;;;;;;;7.40;5.00;;;;;;;;;;4964577;28;20187;-82
2024/01/28 09:50:44;;;;;;;4.57;3.53;;;;;;;;;;4963248;29;20180;-82
2024/01/28 09:53:48;;;;;;;6.63;3.53;;;;;;;;;;4952380;29;20188;-84
2024/01/28 09:56:53;;;;;;;6.30;2.80;;;;;;;;;;4963175;29;20227;-82
2024/01/28 09:59:58;;;;;;;5.17;3.27;;;;;;;;;;4963689;29;20183;-83
2024/01/28 10:03:04;;;;;;;4.00;2.63;;;;;;;;;;4953085;29;20548;-82
2024/01/28 10:06:08;;;;;;;3.57;2.50;;;;;;;;;;4952514;29;20224;-82
2024/01/28 10:09:13;;;;;;;4.20;2.73;;;;;;;;;;4965920;29;20560;-86
2024/01/28 10:12:17;;;;;;;3.70;2.50;;;;;;;;;;4947578;29;20192;-86
2024/01/28 10:15:28;;;;;;;3.63;2.60;;;;;;;;;;4943499;29;20239;-86
2024/01/28 10:18:33;;;;;;;2.40;2.03;;;;;;;;;;4965156;29;20176;-85
2024/01/28 10:21:37;;;;;;;3.63;2.07;;;;;;;;;;4953525;29;20184;-86
2024/01/28 10:24:42;;;;;;;2.87;2.00;;;;;;;;;;4941352;29;20192;-85
2024/01/28 10:27:47;;;;;;;3.87;2.23;;;;;;;;;;4964146;29;20187;-86
2024/01/28 10:30:52;;;;;;;4.43;1.83;;;;;;;;;;4952588;29;20192;-86
2024/01/28 10:33:57;;;;;;;3.63;1.90;;;;;;;;;;4952306;29;20188;-86
2024/01/28 10:37:04;;;;;;;2.33;1.90;;;;;;;;;;4952308;29;20183;-86
2024/01/28 10:40:09;;;;;;;3.43;1.70;;;;;;;;;;4919495;29;20191;-86
2024/01/28 10:43:15;;;;;;;3.83;2.13;;;;;;;;;;4952010;29;20183;-86
2024/01/28 10:46:28;;;;;;;1.93;1.73;;;;;;;;;;4929848;29;20219;-86
2024/01/28 10:49:36;;;;;;;2.20;1.73;;;;;;;;;;4940482;29;20192;-86
2024/01/28 10:52:43;;;;;;;3.03;2.00;;;;;;;;;;4949475;29;20188;-86
2024/01/28 10:55:48;;;;;;;3.80;2.00;;;;;;;;;;4961810;29;20235;-86
2024/01/28 10:58:53;;;;;;;5.67;2.20;;;;;;;;;;4938492;29;20226;-86
2024/01/28 11:01:58;;;;;;;4.83;2.00;;;;;;;;;;4949950;29;20534;-85
2024/01/28 11:05:04;;;;;;;5.50;2.17;;;;;;;;;;4949411;29;20223;-86
2024/01/28 11:08:09;;;;;;;4.27;1.87;;;;;;;;;;4951010;29;20192;-85
2024/01/28 11:11:14;;;;;;;3.43;2.00;;;;;;;;;;4950862;29;20188;-83
2024/01/28 11:14:18;;;;;;;3.47;2.27;;;;;;;;;;4963574;29;20641;-86
2024/01/28 11:17:32;;;;;;;3.93;2.10;;;;;;;;;;4938594;29;20180;-86
2024/01/28 11:20:38;;;;;;;3.63;2.20;;;;;;;;;;4938864;29;20188;-86
2024/01/28 11:23:44;;;;;;;5.50;2.47;;;;;;;;;;4950231;29;20195;-87
2024/01/28 11:26:56;;;;;;;2.83;2.07;;;;;;;;;;4954867;29;20263;-87
2024/01/28 11:30:01;;;;;;;2.73;2.00;;;;;;;;;;4961729;29;20187;-87
2024/01/28 11:33:13;;;;;;;5.30;2.50;;;;;;;;;;4950154;29;20191;-87
2024/01/28 11:36:26;;;;;;;3.87;2.50;;;;;;;;;;4927848;29;20227;-88
2024/01/28 11:39:39;;;;;;;3.50;2.40;;;;;;;;;;4950393;29;20188;-87
2024/01/28 11:42:44;;;;;;;3.57;2.40;;;;;;;;;;4948011;29;20572;-87
2024/01/28 11:45:49;;;;;;;3.07;2.10;;;;;;;;;;4961786;29;20222;-86
2024/01/28 11:48:53;;;;;;;6.57;4.13;;;;;;;;;;4939774;29;20187;-85
2024/01/28 11:51:58;;;;;;;4.27;2.27;;;;;;;;;;4961904;29;20191;-83
2024/01/28 11:55:16;;;;;;;5.77;3.43;;;;;;;;;;4950563;29;20696;-84
2024/01/28 11:58:20;;;;;;;3.80;2.23;;;;;;;;;;4950931;29;20184;-83
2024/01/28 12:01:25;;;;;;;5.47;2.50;;;;;;;;;;4949001;29;20187;-84
2024/01/28 12:04:32;;;;;;;3.67;2.70;;;;;;;;;;4963425;29;20188;-83
2024/01/28 12:07:46;;;;;;;7.60;4.60;;;;;;;;;;4944927;29;20172;-83
2024/01/28 12:10:57;;;;;;;11.10;5.53;;;;;;;;;;4939960;29;20192;-82
2024/01/28 12:14:01;;;;;;;10.87;5.67;;;;;;;;;;4965081;29;20196;-83
2024/01/28 12:17:07;;;;;;;39.77;13.43;;;;;;;;;;4953030;29;20224;-83
2024/01/28 12:20:22;;;;;;;26.40;8.63;;;;;;;;;;4952925;29;20188;-83
2024/01/28 12:23:29;;;;;;;8.50;3.50;;;;;;;;;;4964507;29;20192;-83
2024/01/28 12:26:33;;;;;;;17.87;7.50;;;;;;;;;;4963446;29;20215;-83
2024/01/28 12:29:37;;;;;;;10.87;5.00;;;;;;;;;;4952579;29;20187;-83
2024/01/28 12:32:44;;;;;;;9.63;4.97;;;;;;;;;;4962907;29;20195;-83
2024/01/28 12:35:48;;;;;;;5.80;3.60;;;;;;;;;;4952337;29;20227;-83
2024/01/28 12:38:53;;;;;;;6.67;2.10;;;;;;;;;;4952014;29;20184;-83
2024/01/28 12:41:57;;;;;;;3.83;2.20;;;;;;;;;;4947001;29;20187;-83
2024/01/28 12:45:01;;;;;;;2.70;2.10;;;;;;;;;;4952296;29;20223;-83
2024/01/28 12:48:06;;;;;;;5.03;2.33;;;;;;;;;;4952276;29;20187;-83
2024/01/28 12:51:10;;;;;;;3.23;1.90;;;;;;;;;;4963912;29;20187;-84
2024/01/28 12:54:16;;;;;;;6.83;1.87;;;;;;;;;;4940324;29;20641;-83
2024/01/28 12:57:20;;;;;;;2.77;1.70;;;;;;;;;;4951531;29;20235;-84
2024/01/28 13:00:25;;;;;;;6.80;2.93;;;;;;;;;;4951791;29;20191;-84
2024/01/28 13:03:29;;;;;;;2.80;1.87;;;;;;;;;;4951278;29;20183;-84
2024/01/28 13:06:33;;;;;;;3.00;1.73;;;;;;;;;;4963172;29;20219;-84
2024/01/28 13:09:38;;;;;;;1.83;1.50;;;;;;;;;;4951100;29;20188;-84
2024/01/28 13:12:43;;;;;;;2.23;1.53;;;;;;;;;;4963172;29;20533;-83
2024/01/28 13:15:47;;;;;;;2.50;1.70;;;;;;;;;;4951624;29;20235;-84
2024/01/28 13:18:51;;;;;;;2.80;1.20;;;;;;;;;;4951157;29;20183;-83
2024/01/28 13:21:55;;;;;;;1.90;1.30;;;;;;;;;;4960944;28;20187;-83
2024/01/28 13:24:59;;;;;;;2.63;1.30;;;;;;;;;;4950645;29;20231;-83
2024/01/28 13:28:03;;;;;;;1.63;1.30;;;;;;;;;;4962733;29;20183;-84
2024/01/28 13:31:08;;;;;;;2.63;1.50;;;;;;;;;;4963138;29;20184;-84
2024/01/28 13:34:12;;;;;;;2.53;1.30;;;;;;;;;;4950683;29;20195;-83
2024/01/28 13:37:16;;;;;;;2.40;1.47;;;;;;;;;;4963202;29;20216;-83
2024/01/28 13:40:21;;;;;;;2.57;1.20;;;;;;;;;;4950686;29;20191;-84
2024/01/28 13:43:26;;;;;;;4.87;1.17;;;;;;;;;;4939700;29;20565;-84
2024/01/28 13:46:30;;;;;;;1.23;1.10;;;;;;;;;;4963001;29;20219;-84
2024/01/28 13:49:34;;;;;;;2.23;1.23;;;;;;;;;;4939783;29;20552;-84
2024/01/28 13:52:38;;;;;;;2.17;1.30;;;;;;;;;;4962450;29;20191;-85
2024/01/28 13:55:42;;;;;;;2.13;1.40;;;;;;;;;;4949661;29;20243;-83
2024/01/28 13:58:46;;;;;;;1.63;1.30;;;;;;;;;;4962151;29;20188;-83
2024/01/28 14:01:50;;;;;;;2.70;1.10;;;;;;;;;;4962087;29;20183;-83
2024/01/28 14:04:55;;;;;;;1.30;1.20;;;;;;;;;;4961337;29;20701;-83
2024/01/28 14:07:59;;;;;;;3.00;1.27;;;;;;;;;;4949513;29;20184;-83
2024/01/28 14:11:04;;;;;;;2.27;1.63;;;;;;;;;;4961207;29;20191;-84
2024/01/28 14:14:08;;;;;;;1.17;0.97;;;;;;;;;;4949365;29;20192;-83
2024/01/28 14:17:12;;;;;;;3.97;1.40;;;;;;;;;;4959914;29;20600;-83
2024/01/28 14:20:16;;;;;;;1.67;1.40;;;;;;;;;;4960379;29;20195;-84
2024/01/28 14:23:20;;;;;;;1.70;1.23;;;;;;;;;;4948354;29;20183;-83
2024/01/28 14:26:25;;;;;;;1.80;1.10;;;;;;;;;;4959149;29;20223;-83
2024/01/28 14:29:29;;;;;;;4.93;1.20;;;;;;;;;;4937590;29;20180;-83
2024/01/28 14:32:33;;;;;;;2.20;1.37;;;;;;;;;;4948794;28;20191;-83
2024/01/28 14:35:38;;;;;;;1.80;1.40;;;;;;;;;;4959752;29;20223;-83
2024/01/28 14:38:42;;;;;;;1.87;1.40;;;;;;;;;;4961144;29;20191;-83
2024/01/28 14:41:46;;;;;;;2.27;1.63;;;;;;;;;;4948006;29;20187;-84
2024/01/28 14:44:50;;;;;;;3.73;1.63;;;;;;;;;;4960281;29;20191;-83
2024/01/28 14:47:56;;;;;;;2.03;1.47;;;;;;;;;;4959840;29;20183;-84
2024/01/28 14:51:01;;;;;;;2.20;1.50;;;;;;;;;;4948619;29;20634;-83
2024/01/28 14:54:06;;;;;;;2.70;1.90;;;;;;;;;;4959423;29;20191;-84
2024/01/28 14:57:09;;;;;;;2.77;1.93;;;;;;;;;;4947877;29;20230;-82
2024/01/28 15:00:14;;;;;;;4.10;1.73;;;;;;;;;;4959682;29;20187;-84
2024/01/28 15:03:19;;;;;;;4.53;2.73;;;;;;;;;;4959923;29;20649;-84
2024/01/28 15:06:23;;;;;;;5.40;2.20;;;;;;;;;;4959095;29;20704;-84
2024/01/28 15:09:27;;;;;;;4.63;2.47;;;;;;;;;;4947439;29;20188;-84
2024/01/28 15:12:32;;;;;;;4.67;1.70;;;;;;;;;;4948086;29;20362;-83
2024/01/28 15:15:36;;;;;;;4.97;2.40;;;;;;;;;;4958580;29;20223;-82
2024/01/28 15:18:40;;;;;;;3.20;2.07;;;;;;;;;;4948484;29;20180;-84
2024/01/28 15:21:45;;;;;;;3.43;1.80;;;;;;;;;;4959862;29;20549;-85
2024/01/28 15:24:49;;;;;;;3.27;2.00;;;;;;;;;;4960159;29;20184;-86
2024/01/28 15:27:54;;;;;;;3.67;2.27;;;;;;;;;;4959304;29;20187;-85
2024/01/28 15:30:57;;;;;;;3.80;1.87;;;;;;;;;;4948966;29;20624;-84
2024/01/28 15:34:01;;;;;;;3.53;2.13;;;;;;;;;;4960427;29;20197;-85
2024/01/28 15:37:06;;;;;;;3.50;2.07;;;;;;;;;;4948201;29;20215;-83
2024/01/28 15:40:11;;;;;;;4.63;2.27;;;;;;;;;;4954827;29;20188;-86
2024/01/28 15:43:16;;;;;;;3.53;2.00;;;;;;;;;;4944076;29;20187;-85
2024/01/28 15:46:20;;;;;;;4.87;2.50;;;;;;;;;;4961064;28;20218;-84
2024/01/28 15:49:26;;;;;;;3.97;2.20;;;;;;;;;;4959098;29;20633;-84
2024/01/28 15:52:30;;;;;;;3.73;2.23;;;;;;;;;;4959596;29;20192;-84
2024/01/28 15:55:35;;;;;;;3.43;1.90;;;;;;;;;;4958367;29;20611;-85
2024/01/28 15:58:59;;;;;;;2.67;1.80;;;;;;;;;;4959285;29;20565;-84
2024/01/28 16:02:03;;;;;;;3.37;2.00;;;;;;;;;;4948240;29;20191;-84
2024/01/28 16:05:08;;;;;;;5.23;2.40;;;;;;;;;;4958883;29;20227;-84
2024/01/28 16:08:13;;;;;;;2.57;1.90;;;;;;;;;;4947788;29;20179;-84
2024/01/28 16:11:18;;;;;;;4.53;2.20;;;;;;;;;;4936858;29;20187;-86
2024/01/28 16:14:33;;;;;;;5.03;3.07;;;;;;;;;;4947395;29;20191;-86
2024/01/28 16:17:39;;;;;;;5.10;2.60;;;;;;;;;;4925248;29;20211;-86
2024/01/28 16:20:43;;;;;;;2.60;1.60;;;;;;;;;;4945516;29;20633;-86
2024/01/28 16:23:47;;;;;;;3.07;1.80;;;;;;;;;;4956134;29;20196;-86
2024/01/28 16:26:52;;;;;;;2.70;1.87;;;;;;;;;;4944410;29;20223;-86
2024/01/28 16:29:56;;;;;;;3.20;2.03;;;;;;;;;;4956588;29;20187;-86
2024/01/28 16:33:00;;;;;;;2.20;1.73;;;;;;;;;;4944289;29;20191;-86
2024/01/28 16:36:04;;;;;;;2.73;1.63;;;;;;;;;;4955178;29;20698;-86
2024/01/28 16:39:08;;;;;;;3.13;1.93;;;;;;;;;;4932245;29;20486;-86
2024/01/28 16:42:12;;;;;;;5.23;1.73;;;;;;;;;;4925299;29;20195;-86
2024/01/28 16:45:16;;;;;;;3.87;1.80;;;;;;;;;;4954353;29;20555;-86
2024/01/28 16:48:25;;;;;;;5.77;1.70;;;;;;;;;;4954347;29;20187;-86
2024/01/28 16:51:30;;;;;;;3.07;1.53;;;;;;;;;;4942302;29;20192;-86
2024/01/28 16:54:34;;;;;;;3.10;2.00;;;;;;;;;;4942683;29;20192;-85
2024/01/28 16:57:38;;;;;;;3.03;2.10;;;;;;;;;;4943277;29;20579;-86
2024/01/28 17:00:43;;;;;;;2.93;2.30;;;;;;;;;;4958000;29;20628;-86
2024/01/28 17:03:47;;;;;;;4.57;2.00;;;;;;;;;;4935109;29;20187;-86
2024/01/28 17:06:51;;;;;;;4.10;2.07;;;;;;;;;;4956415;29;20219;-86
2024/01/28 17:09:55;;;;;;;3.87;2.57;;;;;;;;;;4945821;29;20192;-86
2024/01/28 17:13:00;;;;;;;5.13;2.27;;;;;;;;;;4961594;29;20187;-86
2024/01/28 17:16:04;;;;;;;4.03;1.97;;;;;;;;;;4961347;29;20227;-86
2024/01/28 17:19:36;;;;;;;4.00;2.23;;;;;;;;;;4950508;29;20180;-87
2024/01/28 17:23:08;;;;;;;4.10;2.27;;;;;;;;;;4953530;28;20560;-86
2024/01/28 17:26:14;;;;;;;5.53;2.30;;;;;;;;;;4948887;29;20227;-86
2024/01/28 17:29:18;;;;;;;4.10;2.43;;;;;;;;;;4967469;29;20187;-86
2024/01/28 17:32:22;;;;;;;3.67;2.47;;;;;;;;;;4949978;29;20191;-86
2024/01/28 17:35:26;;;;;;;2.93;2.50;;;;;;;;;;4961024;29;20694;-86
2024/01/28 17:38:30;;;;;;;4.23;2.40;;;;;;;;;;4961545;29;20227;-86
2024/01/28 17:41:37;;;;;;;3.53;2.60;;;;;;;;;;4956783;29;20183;-86
2024/01/28 17:44:41;;;;;;;2.70;2.30;;;;;;;;;;4939372;29;20557;-86
2024/01/28 17:47:45;;;;;;;6.03;2.87;;;;;;;;;;4949574;29;20544;-86
2024/01/28 17:50:49;;;;;;;5.40;2.53;;;;;;;;;;4959637;29;20567;-85
2024/01/28 17:53:53;;;;;;;4.37;2.40;;;;;;;;;;4961814;29;20195;-85
2024/01/28 17:56:57;;;;;;;5.83;2.40;;;;;;;;;;4950687;29;20662;-85
2024/01/28 18:00:04;;;;;;;4.40;2.97;;;;;;;;;;4950177;29;20183;-86
2024/01/28 18:03:16;;;;;;;4.10;2.50;;;;;;;;;;4955035;29;20536;-86
2024/01/28 18:06:22;;;;;;;5.40;2.93;;;;;;;;;;4961594;29;20623;-85
2024/01/28 18:09:26;;;;;;;5.30;2.83;;;;;;;;;;4936905;29;20539;-86
2024/01/28 18:12:30;;;;;;;4.20;3.00;;;;;;;;;;4940008;29;20551;-86
2024/01/28 18:15:34;;;;;;;7.70;3.20;;;;;;;;;;4956616;29;20622;-86
2024/01/28 18:18:39;;;;;;;5.03;3.33;;;;;;;;;;4941705;29;20600;-86
2024/01/28 18:21:43;;;;;;;6.33;3.90;;;;;;;;;;4949553;29;20539;-86